createdAt,value
2018-12-21T00:27:15.793Z,4.13
2018-12-21T00:30:31.494Z,6.93
2018-12-21T00:54:42.839Z,3.33
2018-12-21T00:57:30.788Z,3.77
2018-12-21T01:03:25.199Z,4.43
2018-12-21T01:06:16.695Z,5.00
2018-12-21T01:09:09.196Z,4.77
2018-12-21T01:11:51.840Z,4.87
2018-12-21T01:14:40.108Z,4.83
2018-12-21T01:23:26.325Z,6.23
2018-12-21T01:29:11.233Z,7.78
2018-12-21T01:32:31.594Z,7.87
2018-12-21T01:36:01.493Z,6.47
2018-12-21T01:44:51.966Z,7.07
2018-12-21T01:47:44.784Z,5.15
2018-12-21T01:50:35.702Z,3.23
2018-12-21T01:53:13.663Z,3.33
2018-12-21T01:56:01.704Z,3.53
2018-12-21T01:58:46.150Z,4.33
2018-12-21T02:07:34.025Z,3.50
2018-12-21T02:10:18.565Z,3.90
2018-12-21T02:13:04.049Z,2.90
2018-12-21T02:15:55.435Z,4.20
2018-12-21T02:18:46.030Z,3.60
2018-12-21T02:21:28.939Z,4.40
2018-12-21T02:33:14.232Z,3.87
2018-12-21T02:35:50.971Z,3.73
2018-12-21T02:38:36.204Z,3.93
2018-12-21T02:41:21.760Z,3.97
2018-12-21T02:44:11.835Z,3.97
2018-12-21T02:49:33.818Z,3.00
2018-12-21T02:52:14.840Z,3.57
2018-12-21T02:54:58.657Z,4.40
2018-12-21T02:57:41.117Z,3.43
2018-12-21T03:00:22.225Z,3.97
2018-12-21T03:03:03.851Z,4.67
2018-12-21T03:05:46.394Z,3.40
2018-12-21T03:08:29.980Z,3.43
2018-12-21T03:11:28.369Z,3.67
2018-12-21T03:14:18.591Z,2.97
2018-12-21T03:17:24.696Z,3.80
2018-12-21T03:23:37.825Z,1.97
2018-12-21T03:28:17.606Z,3.52
2018-12-21T03:31:03.233Z,2.60
2018-12-21T03:33:55.472Z,2.63
2018-12-21T03:36:47.405Z,3.23
2018-12-21T03:39:26.338Z,3.00
2018-12-21T03:42:10.675Z,3.00
2018-12-21T03:44:50.187Z,2.83
2018-12-21T03:47:36.694Z,3.23
2018-12-21T03:50:21.786Z,2.73
2018-12-21T03:52:56.168Z,2.40
2018-12-21T03:55:32.956Z,2.13
2018-12-21T03:58:15.039Z,3.07
2018-12-21T04:00:59.857Z,1.80
2018-12-21T04:03:44.278Z,2.40
2018-12-21T04:06:35.654Z,3.37
2018-12-21T04:09:26.176Z,3.13
2018-12-21T04:12:08.790Z,2.57
2018-12-21T04:14:46.205Z,3.30
2018-12-21T04:20:20.746Z,3.10
2018-12-21T04:26:01.206Z,2.67
2018-12-21T04:28:51.886Z,2.20
2018-12-21T04:31:37.457Z,2.93
2018-12-21T04:34:27.503Z,2.13
2018-12-21T04:37:14.229Z,2.87
2018-12-21T04:40:03.930Z,2.50
2018-12-21T04:42:59.071Z,1.97
2018-12-21T04:45:45.394Z,2.60
2018-12-21T04:48:37.983Z,2.60
2018-12-21T04:51:24.030Z,2.10
2018-12-21T04:54:17.547Z,2.10
2018-12-21T05:00:11.174Z,2.00
2018-12-21T05:02:53.708Z,3.33
2018-12-21T05:05:49.058Z,3.10
2018-12-21T05:11:28.384Z,2.30
2018-12-21T05:14:28.853Z,2.50
2018-12-21T05:20:32.943Z,2.40
2018-12-21T05:23:15.958Z,2.40
2018-12-21T05:32:15.468Z,2.03
2018-12-21T05:34:57.175Z,2.10
2018-12-21T05:37:42.804Z,2.93
2018-12-21T05:40:38.223Z,3.20
2018-12-21T05:43:48.594Z,3.30
2018-12-21T06:03:24.242Z,3.40
2018-12-21T06:06:14.701Z,3.57
2018-12-21T06:08:52.193Z,4.50
2018-12-21T06:11:25.304Z,3.90
2018-12-21T06:14:06.865Z,4.77
2018-12-21T06:16:47.942Z,4.00
2018-12-21T06:19:30.876Z,3.60
2018-12-21T06:22:21.134Z,4.43
2018-12-21T06:25:18.548Z,4.20
2018-12-21T06:27:57.797Z,3.43
2018-12-21T06:30:33.421Z,3.37
2018-12-21T06:33:06.142Z,3.67
2018-12-21T06:35:51.953Z,3.30
2018-12-21T06:38:41.675Z,2.87
2018-12-21T06:41:28.300Z,2.80
2018-12-21T06:44:13.835Z,2.67
2018-12-21T06:46:57.743Z,2.90
2018-12-21T06:49:33.783Z,3.03
2018-12-21T06:52:19.721Z,4.80
2018-12-21T06:54:58.661Z,2.73
2018-12-21T06:57:39.502Z,2.43
2018-12-21T07:00:24.208Z,3.50
2018-12-21T07:03:07.675Z,3.67
2018-12-21T07:06:02.908Z,2.47
2018-12-21T07:14:59.801Z,2.50
2018-12-21T07:17:53.067Z,3.07
2018-12-21T07:20:35.285Z,2.70
2018-12-21T07:26:41.667Z,2.87
2018-12-21T07:29:17.683Z,3.17
2018-12-21T07:32:20.381Z,2.50
2018-12-21T07:35:04.071Z,2.80
2018-12-21T07:37:52.652Z,2.43
2018-12-21T07:40:41.132Z,2.70
2018-12-21T07:55:37.950Z,2.63
2018-12-21T08:01:28.370Z,2.90
2018-12-21T08:04:15.545Z,2.70
2018-12-21T08:07:34.493Z,2.80
2018-12-21T08:43:56.970Z,1.87
2018-12-21T08:49:50.373Z,2.33
2018-12-21T08:52:38.249Z,1.60
2018-12-21T08:55:25.452Z,2.20
2018-12-21T08:58:18.251Z,2.27
2018-12-21T09:01:01.618Z,2.00
2018-12-21T09:07:03.106Z,2.27
2018-12-21T09:09:47.715Z,2.87
2018-12-21T09:12:39.192Z,2.10
2018-12-21T09:15:27.427Z,2.20
2018-12-21T09:18:15.076Z,2.30
2018-12-21T09:21:04.584Z,2.70
2018-12-21T09:24:02.829Z,1.93
2018-12-21T09:35:02.868Z,2.80
2018-12-21T09:37:58.479Z,1.97
2018-12-21T09:41:05.148Z,2.13
2018-12-21T10:00:28.387Z,3.10
2018-12-21T10:03:34.121Z,3.50
2018-12-21T10:09:33.743Z,3.23
2018-12-21T10:12:34.520Z,3.83
2018-12-21T10:15:28.292Z,3.20
2018-12-21T10:32:14.058Z,8.70
2018-12-21T10:35:13.938Z,8.20
2018-12-21T10:47:34.418Z,12.00
2018-12-21T13:06:43.510Z,1.20
2018-12-21T13:09:27.158Z,1.00
2018-12-21T13:34:14.313Z,0.93
2018-12-21T13:37:29.442Z,1.40
2018-12-21T13:40:16.395Z,3.50
2018-12-21T13:50:55.336Z,1.20
2018-12-21T14:01:46.261Z,3.70
2018-12-21T14:04:25.722Z,1.50
2018-12-21T14:07:07.259Z,1.60
2018-12-21T14:12:46.243Z,1.37
2018-12-21T14:15:48.301Z,2.47
2018-12-21T14:18:32.195Z,1.80
2018-12-21T14:21:28.149Z,1.70
2018-12-21T14:24:20.009Z,2.07
2018-12-21T22:13:50.877Z,10.18
2018-12-21T22:34:43.659Z,7.93
2018-12-21T22:37:36.355Z,8.20
2018-12-21T22:40:44.939Z,9.20
2018-12-21T22:49:58.142Z,9.97
2018-12-21T22:52:55.216Z,8.87
2018-12-21T23:00:57.026Z,9.60
2018-12-21T23:04:09.068Z,8.27
2018-12-21T23:58:50.015Z,8.73
